Airfield :
LOGIN :

Register | Disclaimer

   EN    FR    IT 

 










Legend :    VFR   Marginal VFR   IFR   Intensive IFR   Very Intensive IFR
Visi :
Ceiling :
>= 8 km
>= 3000ft
5 to 8 km
1000 to 3000 ft
1500m to 5 km
500 to 1000 ft
800 to 1500m
200 to 500 ft
< 800m
< 200 ft
Symbols :   Thunderstorms  Fog  Heavy snow  Heavy precipitations  Wind > 20 kt
SIGMETs :     Misc.  Thunderstorms  Icing  Turbulence  Mountain Waves  Volcanic Ashes






- Airport Elevation : 162 ft
- IATA code : BOD


LFBD - Bordeaux / Merignac

CURRENT METAR :
  • 281800Z AUTO 31009KT CAVOK 14/05 Q1019 NOSIG

EXPIRED METARs :
  • 281730Z AUTO 30011KT 9999 FEW023 SCT031 BKN038 15/05 Q1018 NOSIG
  • 281700Z AUTO 30012KT 9999 FEW026 17/04 Q1018 NOSIG
  • 281630Z AUTO 35006KT 310V020 CAVOK 17/03 Q1018 NOSIG
  • 281600Z AUTO 02005KT 350V050 CAVOK 17/02 Q1018 NOSIG
  • 281530Z AUTO 31006KT 250V360 CAVOK 18/02 Q1018 NOSIG
  • 281500Z AUTO VRB04KT CAVOK 18/02 Q1018 NOSIG

TAF TAF LFBD
Valid from the 28 at 18:00 until the 30 at 00:00 UTC


281700Z 2818/2924 35005KT CAVOK
BECMG 2904/2906 OVC040
TEMPO 2911/2916 02015G25KT 4000 -RA BKN010
BECMG 2916/2918 02015G28KT CAVOK
ATIS : +33 5 57 92 81 04



MET'MAP, your aeronautical weather chart ! - Copyright ORBIFLY December 2007 - Disclaimer

ORBIFLY MET'MAP TEAM :

Programming & Development : Alexandra Zaïnal
Concept & original design : Baudouin d'Aumeries
Assistance for programming : Marc-Olivier Méhu
Technical & hardware support : Manuel Goepfert

Contact : metmap@orbifly.com




SOURCES & CREDITS :

   NOAA